NWS Home NWS Lubbock West Texas Mesonet Latest Conditions as of 0114 PM, Tue Apr 28, 2015

Latest   N   C   S   Daily Sum   3hrΔ   24hrΔ   Soil Data 
Site Map   24hr Precip   72hr Precip   Google Plot


Station Time of Last Temp Dew Pt. RH Wind Direction Wind Speed Wind Gust Max Wind Max Temp Min Temp Max RH Min RH Altimeter 1HR Rain Today's Rain Solar Rad
Abernathy 5ENE  01:05 PM 56 42 59% N2126 34 mph 6° @ 1250 AM 56 41 98 59 30.23" 0 0.04 738
Aiken 3WSW  01:06 PM 55 43 65% N2023 33 mph 11° @ 1242 AM 55 41 97 61 30.23" 0 0.03 1232
Amarillo 15NNW   01:06 PM 58 39 49% N1922 29 mph 15° @ 1103 AM 58 40 96 43 30.25" 0 0.01 1061
Amarillo 7SSE  01:06 PM 58 37 46% NE1521 30 mph 16° @ 1052 AM 58 39 96 45 30.26" 0 0 983
Amarillo 9NNE  01:06 PM 58 35 43% N2326 29 mph 22° @ 1120 AM 60 38 98 41 30.25" 0 0.01 261
Amherst 1NE  01:05 PM 56 38 50% N2029 34 mph 19° @ 1210 AM 56 40 94 50 30.24" 0 0 733
Andrews 2E  01:05 PM 59 33 37% N2229 32 mph 354° @ 0245 AM 59 43 87 37 30.22" 0 0 598
Anton 6SSW  01:05 PM 55 40 60% N1927 37 mph 359° @ 0130 AM 55 41 94 58 30.23" 0 0 731
Aspermont 3NE  01:05 PM 53 46 77% N1519 28 mph 360° @ 0110 AM 54 47 99 76 30.18" 0 0.32 134
Big Bend NP - Persimmon Gap  01:06 PM 56 37 49% N1115 32 mph 6° @ 1208 AM 57 48 57 46 30.22" 0 0 173
Big Lake 1WNW  01:06 PM 48 43 84% N1418 31 mph 332° @ 0312 AM 49 45 96 71 30.20" 0 0 133
Bootleg 11WNW  01:06 PM 54 33 44% N1821 33 mph 33° @ 1222 PM 55 36 94 41 30.29" 0 0 929
Boys Ranch 1WSW  01:05 PM 58 35 41% N1215 27 mph 16° @ 1241 PM 60 38 91 39 30.27" 0 0 254
Brownfield 2S  01:05 PM 53 38 57% NE1623 35 mph 6° @ 0230 AM 55 41 93 56 30.23" 0 0 412
Canadian 6E  01:06 PM 61 37 40% N2023 27 mph 0° @ 1252 PM 63 43 98 39 30.19" 0 0.04 1042
Caprock Canyons State Park  01:06 PM 55 41 59% NE1119 27 mph 349° @ 0406 AM 56 43 99 57 30.22" 0 0.28 301
Childress 2NNE  01:05 PM 54 44 71% N912 26 mph 0° @ 0610 AM 54 46 99 71 30.21" 0 0.10 245
Clarendon 2WSW  01:00 PM 57 38 51% N1824 32 mph 13° @ 1220 AM 58 43 92 50 30.21" 0 0.01 431
Claude 12SW  01:06 PM 56 37 48% N2124 31 mph 14° @ 1137 AM 57 39 97 47 30.23" 0 0.01 316
Coyanosa 2N  01:06 PM 58 37 45% N1620 27 mph 335° @ 0502 AM 59 47 63 45 30.25" 0 0 487
Denver City 7WNW  01:05 PM 57 33 40% NE2026 35 mph 3° @ 1220 AM 57 40 89 40 30.23" 0 0 790
Dimmitt 2NE  01:05 PM 55 40 58% N1928 31 mph 8° @ 1120 AM 55 38 97 57 30.24" 0 0 1039
Dora NM 2SW  01:05 PM 56 33 43% NE1828 35 mph 30° @ 0150 AM 56 37 94 43 30.26" 0.01 0.01 930
Dozier 3W  01:06 PM 59 40 49% N1418 24 mph 2° @ 1203 AM 61 45 96 48 30.21" 0 0.01 448
Floydada 2NNE  01:05 PM 54 39 57% N1824 30 mph 8° @ 0335 AM 54 41 100 57 30.21" 0 0.03 666
Fluvanna 3WNW  01:05 PM 51 43 76% N1722 31 mph 18° @ 1040 AM 51 44 95 76 30.19" 0 0.11 303
Fort Chadbourne  01:05 PM 55 44 65% NE1013 28 mph 14° @ 1139 AM 56 49 88 62 30.15" 0 0 422
Fort McKavett  01:05 PM 52 45 76% N1113 27 mph 296° @ 0539 AM 54 49 86 62 30.14" 0 0 140
Friona 2NE  01:05 PM 55 37 52% N1622 34 mph 28° @ 1205 AM 55 38 93 51 30.27" 0 0.01 1022
Gail 2ESE  01:05 PM 55 43 65% NE1825 30 mph 19° @ 1235 PM 55 45 94 64 30.19" 0 0.02 1021
Goodlett 3W  01:05 PM 54 45 72% N1117 29 mph 14° @ 1215 AM 55 47 93 69 30.20" 0 0.09 230
Goodnight  01:07 PM 57 37 48% NE1721 30 mph 18° @ 1152 AM 59 41 96 45 30.23" 0 0.01 1126
Graham 5SSW  01:05 PM 53 40 63% N2330 36 mph 22° @ 1220 PM 53 43 93 62 30.19" 0 0.04 695
Guthrie 10WSW  01:05 PM 53 44 74% N1623 30 mph 358° @ 0245 AM 53 46 99 74 30.19" 0 0.10 288
Hart 3N  01:05 PM 54 41 62% N2229 36 mph 7° @ 1245 AM 54 39 95 62 30.23" 0 0 1012
Haskell 1NW  01:05 PM 53 45 78% N1923 29 mph 27° @ 1255 AM 55 48 100 76 30.16" 0 0.16 78
Hereford 2NW  01:05 PM 56 35 46% NE1823 29 mph 19° @ 1250 PM 57 39 93 45 30.26" 0 0 1045
Hobbs NM 5NW  01:06 PM 59 32 37% NE1217 31 mph 7° @ 0301 AM 59 42 80 36 30.26" 0 0 1185
Jayton 1SSE  01:05 PM 53 45 75% N1217 32 mph 3° @ 1205 AM 53 46 97 75 30.19" 0 0.24 157
Junction 1SSW  01:06 PM 54 46 75% N914 24 mph 301° @ 0606 AM 61 50 85 57 30.12" 0 0 104
Knox City 3NW  01:05 PM 56 45 68% N1419 25 mph 6° @ 1255 AM 56 48 91 67 30.18" 0 0.24 607
Lake Alan Henry 1NW  01:06 PM 52 44 73% NE1518 26 mph 16° @ 1027 AM 56 45 95 68 30.20" 0 0.28 256
Lamesa 2SE  01:05 PM 54 39 58% NE2230 32 mph 8° @ 0100 PM 56 43 96 55 30.21" 0 0 352
Levelland 4S  01:05 PM 55 37 51% NE2129 35 mph 360° @ 0200 AM 55 40 89 50 30.23" 0 0 435
Lomax 1SSE  01:06 PM 54 40 59% N1618 31 mph 328° @ 1248 AM 56 47 82 54 30.21" 0 0 391
Lubbock 3WNW TTU  01:05 PM 54 38 57% NE1319 28 mph 7° @ 0145 AM 55 42 93 56 30.22" 0 0.06 341
McLean 1E  01:05 PM 58 39 50% N1420 26 mph 16° @ 1255 AM 58 42 98 50 30.19" 0 0.01 808
Memphis 1NE  01:05 PM 59 44 60% NE1321 30 mph 2° @ 1205 AM 59 46 95 60 30.20" 0 0 919
Menard 2NW   01:06 PM 53 46 75% N1216 26 mph 303° @ 0528 AM 57 49 90 63 30.13" 0 0 186
Mertzon 3NNE  01:06 PM 51 44 77% N1319 32 mph 311° @ 0146 AM 52 48 94 72 30.18" 0 0 77
Morton 1ENE  01:05 PM 56 35 46% N1927 35 mph 10° @ 1050 AM 56 40 94 46 30.24" 0 0 778
Muleshoe 2SSW  01:05 PM 58 37 46% NE1523 28 mph 9° @ 0130 AM 58 39 92 46 30.25" 0 0 1145
Northfield 1S  01:05 PM 54 44 70% N1215 27 mph 16° @ 0525 AM 54 45 100 70 30.21" 0 0.25 424
O'Donnell 1N  01:05 PM 55 41 59% N2635 35 mph 24° @ 1205 PM 55 42 93 59 30.21" 0 0.04 737
Odell 4ENE  01:06 PM 54 47 76% N1214 23 mph 9° @ 0631 AM 54 48 97 74 30.19" 0 0.37 194
Olton 6S  01:05 PM 55 38 52% N2127 34 mph 4° @ 1255 AM 55 40 92 52 30.23" 0 0 754
Paducah 10SW  01:05 PM 52 45 78% N1318 26 mph 2° @ 0300 AM 53 46 98 78 30.20" 0 0.25 267
Palo Duro Canyon SP Floor  01:05 PM 59 36 41% SE46 27 mph 338° @ 1219 PM 60 43 95 41 30.24" 0 0.02 1143
Palo Duro Canyon State Park Rim  01:06 PM 59 37 44% NE1521 28 mph 7° @ 0941 AM 59 40 94 44 30.25" 0 0.02 1235
Pampa 2E  01:05 PM 56 37 49% N1725 28 mph 10° @ 1235 PM 57 41 100 48 30.22" 0 0.02 484
Plains 3N  01:05 PM 54 34 48% NE1924 33 mph 7° @ 1210 PM 56 40 93 45 30.24" 0 0 431
Plainview 1S  01:05 PM 55 39 56% NE1624 31 mph 358° @ 1235 AM 55 41 99 56 30.22" 0 0 667
Post 1NE  01:05 PM 56 41 58% N1925 32 mph 11° @ 1025 AM 56 45 95 58 30.20" 0 0.11 370
Ralls 1SE  01:05 PM 53 41 66% NE2023 33 mph 15° @ 0425 AM 54 43 97 65 30.22" 0 0.07 583
Reese Center  01:05 PM 53 39 60% NE1824 33 mph 8° @ 0145 AM 54 40 96 57 30.22" 0 0.02 398
Roaring Springs 3N  01:05 PM 52 44 73% NE1422 32 mph 359° @ 0520 AM 53 43 100 73 30.21" 0 0.36 305
San Angelo 7NW  01:05 PM 54 43 69% NW1215 30 mph 312° @ 0315 AM 54 49 89 67 30.16" 0 0 178
Seagraves 1SW  01:05 PM 55 38 53% N1318 32 mph 1° @ 0250 AM 57 42 88 46 30.23" 0 0 525
Seminole 2NNE  01:05 PM 56 35 45% N2328 34 mph 352° @ 0325 AM 58 43 82 40 30.22" 0 0 427
Seymour 3NW  01:05 PM 56 45 68% N1320 26 mph 20° @ 1225 AM 57 50 93 64 30.16" 0 0.10 304
Silverton 7ESE  01:05 PM 54 39 58% N1316 33 mph 359° @ 1235 AM 56 41 97 56 30.22" 0 0.20 239
Slaton 2NE  01:05 PM 55 42 63% N1522 34 mph 358° @ 1220 AM 55 42 95 62 30.22" 0 0.05 784
Snyder 3E  01:05 PM 51 45 83% N1318 32 mph 347° @ 1230 AM 51 44 100 82 30.18" 0 0.08 142
Spur 1W  01:05 PM 53 42 66% NE1928 33 mph 14° @ 0135 AM 54 45 93 66 30.20" 0 0.04 486
St. Lawrence 5SW  01:05 PM 52 41 67% N1720 32 mph 331° @ 0205 AM 52 46 92 67 30.20" 0 0 258
Sterling City 4WSW  01:07 PM 52 41 66% NW1316 29 mph 321° @ 0244 AM 53 47 92 65 30.19" 0 0 77
Sundown 8WSW  01:05 PM 55 37 51% N1521 33 mph 2° @ 0130 AM 56 40 92 50 30.23" 0 0 320
Sweetwater 11SW   01:06 PM 51 45 80% N1519 30 mph 6° @ 0714 AM 51 46 98 79 30.17" 0 0.06 223
Tahoka 3NNE  01:05 PM 57 41 55% N2325 34 mph 8° @ 0459 AM 57 42 93 55 30.20" 0 0.07 1178
Tarzan 2WNW  01:05 PM 55 38 51% N2225 33 mph 358° @ 1247 PM 57 45 92 48 30.21" 0 0 266
Tatum NM 2SW  01:05 PM 58 31 37% NE1823 41 mph 17° @ 1150 AM 59 37 87 35 30.25" 0 0 941
Tulia 2ENE  01:05 PM 54 39 56% N1825 28 mph 4° @ 1220 AM 56 39 100 56 30.23" 0 0 828
Turkey 2WSW  01:05 PM 55 44 67% N813 30 mph 349° @ 0100 AM 56 44 99 67 30.21" 0 0.08 737
Umbarger 3NNE  01:06 PM 56 37 49% NE2124 29 mph 29° @ 1252 PM 57 38 95 44 30.26" 0 0.01 1143
Wall 1E  01:05 PM 53 44 72% NW1318 26 mph 312° @ 0405 AM 55 50 82 64 30.16" 0 0 83
Weinert 2NNE  01:07 PM 55 46 72% N1418 28 mph 22° @ 0128 AM 56 48 94 71 30.17" 0 0.19 416
White River Lake 6NW  01:05 PM 55 42 62% N1929 35 mph 354° @ 1250 AM 56 44 95 60 30.20" 0 0.13 480
Wolfforth 6SSW  01:05 PM 53 45 75% N1924 35 mph 7° @ 1210 AM 54 42 100 75 30.22" 0 0.06 314

West Texas Mesonet Home   Site Map/Menu  NWS Lubbock Soil Data  Daily Summary Page  24hr Precip  72hr Precip  Google Plot